Time;durP1;ratioP1;P1;durP2;ratioP2;P2;SDS_P1;SDS_P2;PMS_P1;PMS_P2;Temp;Humidity;BMP_temperature;BMP_pressure;BME280_temperature;BME280_humidity;BME280_pressure;Samples;Min_cycle;Max_cycle;Signal;HPM_P1;HPM_P2
2023/03/17 00:00:09;;;;;;;38.10;17.40;;;;;;;8.05;48.86;99906.44;266994;1272;22544;-79
2023/03/17 00:06:33;;;;;;;41.30;17.00;;;;;;;7.82;49.07;99911.09;267209;1266;22581;-81
2023/03/17 00:12:38;;;;;;;37.00;16.60;;;;;;;7.98;48.79;99910.78;267507;1267;22565;-80
2023/03/17 00:18:40;;;;;;;35.20;16.20;;;;;;;8.17;48.53;99907.59;267284;1273;22566;-81
2023/03/17 00:24:42;;;;;;;36.20;16.50;;;;;;;7.97;48.75;99903.44;267133;1266;22842;-79
2023/03/17 00:30:44;;;;;;;39.60;17.10;;;;;;;7.89;48.94;99904.73;267160;1274;22570;-81
2023/03/17 00:36:48;;;;;;;42.20;17.50;;;;;;;7.92;48.95;99905.04;267389;1272;22595;-81
2023/03/17 00:42:51;;;;;;;37.80;16.70;;;;;;;7.85;49.19;99907.77;267312;1270;22581;-81
2023/03/17 00:48:53;;;;;;;37.60;17.30;;;;;;;7.86;49.85;99906.05;267017;1271;22593;-81
2023/03/17 00:54:55;;;;;;;40.80;17.60;;;;;;;7.65;49.89;99905.73;267043;1262;22534;-80
2023/03/17 01:00:57;;;;;;;35.10;15.70;;;;;;;7.43;50.17;99899.90;267092;1266;24232;-79
2023/03/17 01:06:59;;;;;;;33.50;16.90;;;;;;;7.23;51.06;99900.47;267484;1267;22530;-80
2023/03/17 01:13:01;;;;;;;40.80;17.10;;;;;;;7.39;50.29;99894.23;267091;1272;22535;-83
2023/03/17 01:19:08;;;;;;;40.60;16.80;;;;;;;6.93;51.05;99897.46;267517;1269;22542;-83
2023/03/17 01:25:11;;;;;;;38.90;17.20;;;;;;;7.07;50.84;99899.20;267804;1274;25402;-82
2023/03/17 01:31:22;;;;;;;38.70;16.00;;;;;;;7.13;50.56;99898.42;267338;1271;22754;-81
2023/03/17 01:37:24;;;;;;;34.90;15.90;;;;;;;7.19;50.29;99907.17;267257;1263;22670;-79
2023/03/17 01:43:28;;;;;;;39.40;17.20;;;;;;;7.04;50.43;99897.94;267070;1270;22831;-78
2023/03/17 01:49:34;;;;;;;33.00;15.40;;;;;;;6.93;50.58;99883.44;267865;1269;23335;-81
2023/03/17 01:55:37;;;;;;;33.20;15.40;;;;;;;6.58;51.47;99883.44;267612;1274;22777;-80
2023/03/17 02:01:43;;;;;;;37.10;16.80;;;;;;;6.81;51.16;99881.57;267162;1269;22533;-80
2023/03/17 02:07:45;;;;;;;35.80;16.10;;;;;;;6.49;51.76;99876.81;267318;1274;22528;-81
2023/03/17 02:13:49;;;;;;;36.60;17.00;;;;;;;6.71;51.27;99875.84;269055;1269;22566;-80
2023/03/17 02:19:51;;;;;;;34.80;15.70;;;;;;;6.62;51.53;99875.31;267373;1272;24374;-78
2023/03/17 02:25:53;;;;;;;35.40;16.40;;;;;;;6.60;51.82;99869.48;266800;1264;22618;-79
2023/03/17 02:31:54;;;;;;;37.80;16.90;;;;;;;6.59;51.59;99867.20;266912;1271;25254;-79
2023/03/17 02:37:56;;;;;;;35.70;15.90;;;;;;;6.74;51.30;99867.33;267124;1269;23080;-79
2023/03/17 02:43:58;;;;;;;33.50;15.50;;;;;;;6.67;51.28;99869.63;267044;1269;23945;-79
2023/03/17 02:50:00;;;;;;;40.20;17.10;;;;;;;6.51;51.75;99870.19;267036;1267;22530;-79
2023/03/17 02:56:02;;;;;;;37.40;16.30;;;;;;;6.57;51.80;99867.91;267136;1271;23270;-80
2023/03/17 03:02:05;;;;;;;35.30;16.60;;;;;;;6.40;51.92;99867.90;267040;1274;22986;-80
2023/03/17 03:08:09;;;;;;;33.90;15.90;;;;;;;6.32;51.76;99873.00;267047;1267;22539;-81
2023/03/17 03:14:11;;;;;;;38.50;17.10;;;;;;;6.17;52.11;99862.62;267290;1270;22741;-79
2023/03/17 03:20:13;;;;;;;36.20;16.50;;;;;;;6.08;52.01;99862.41;267366;1270;25600;-79
2023/03/17 03:26:15;;;;;;;33.50;14.70;;;;;;;6.12;52.00;99869.65;267355;1274;23321;-80
2023/03/17 03:32:16;;;;;;;32.60;14.70;;;;;;;6.07;52.30;99863.31;266810;1273;25239;-81
2023/03/17 03:38:19;;;;;;;31.20;15.40;;;;;;;5.96;52.66;99861.36;266913;1274;22772;-81
2023/03/17 03:44:20;;;;;;;36.90;15.90;;;;;;;5.93;52.50;99852.08;267182;1273;24173;-81
2023/03/17 03:50:33;;;;;;;34.40;15.80;;;;;;;5.87;52.98;99844.59;268456;1270;23918;-81
2023/03/17 03:56:37;;;;;;;33.50;14.50;;;;;;;6.01;52.88;99844.36;267566;1258;23423;-81
2023/03/17 04:02:40;;;;;;;35.50;16.30;;;;;;;6.14;52.63;99862.10;266971;1267;24230;-78
2023/03/17 04:08:42;;;;;;;38.60;16.90;;;;;;;6.23;52.55;99866.90;267610;1264;22560;-79
2023/03/17 04:14:44;;;;;;;30.80;14.50;;;;;;;6.37;51.88;99858.69;267027;1261;25377;-78
2023/03/17 04:20:46;;;;;;;33.00;16.10;;;;;;;6.11;52.63;99857.23;267259;1267;22595;-78
2023/03/17 04:26:48;;;;;;;41.30;18.30;;;;;;;6.12;53.83;99849.31;267254;1260;25281;-78
2023/03/17 04:32:50;;;;;;;37.00;16.90;;;;;;;6.20;54.03;99847.74;267121;1268;24231;-80
2023/03/17 04:38:51;;;;;;;41.50;17.40;;;;;;;5.54;55.99;99864.92;267224;1270;24029;-80
2023/03/17 04:44:53;;;;;;;45.80;18.70;;;;;;;5.40;57.56;99860.18;267631;1270;22520;-80
2023/03/17 04:50:54;;;;;;;45.60;20.50;;;;;;;5.80;57.10;99872.27;268169;1263;25400;-82
2023/03/17 04:57:05;;;;;;;48.90;20.50;;;;;;;6.18;56.20;99867.56;267255;1268;22698;-79
2023/03/17 05:03:07;;;;;;;44.10;20.00;;;;;;;6.19;55.95;99857.45;267066;1273;24343;-79
2023/03/17 05:09:30;;;;;;;52.50;21.70;;;;;;;5.94;56.92;99852.64;266932;1273;25477;-83
2023/03/17 05:15:31;;;;;;;45.80;21.30;;;;;;;6.26;56.20;99844.48;267604;1267;22732;-80
2023/03/17 05:21:37;;;;;;;51.30;22.50;;;;;;;6.31;56.05;99850.46;267341;1267;24412;-81
2023/03/17 05:27:39;;;;;;;50.90;23.50;;;;;;;6.26;56.40;99863.00;268176;1270;23616;-77
2023/03/17 05:33:41;;;;;;;51.90;22.40;;;;;;;6.93;54.92;99865.42;267743;1266;22521;-80
2023/03/17 05:39:42;;;;;;;54.00;23.10;;;;;;;6.96;54.87;99873.77;267055;1267;23920;-80
2023/03/17 05:45:44;;;;;;;52.70;23.70;;;;;;;7.16;54.62;99882.11;267179;1267;26501;-79
2023/03/17 05:51:46;;;;;;;49.30;22.70;;;;;;;6.83;55.49;99874.95;267125;1273;22527;-82
2023/03/17 05:57:47;;;;;;;50.90;24.90;;;;;;;7.19;55.07;99873.88;267463;1270;25099;-82
2023/03/17 06:03:51;;;;;;;56.10;24.60;;;;;;;7.20;54.92;99877.16;267767;1270;22568;-82
2023/03/17 06:09:53;;;;;;;55.20;25.70;;;;;;;7.31;54.88;99878.61;267959;1270;22531;-84
2023/03/17 06:15:57;;;;;;;60.20;26.50;;;;;;;7.23;54.80;99880.26;267332;1267;23129;-81
2023/03/17 06:22:02;;;;;;;55.30;25.90;;;;;;;7.61;53.83;99890.64;267256;1272;22699;-85
2023/03/17 06:28:04;;;;;;;62.00;27.80;;;;;;;7.95;53.35;99888.05;267804;1274;22546;-79
2023/03/17 06:34:07;;;;;;;52.40;25.80;;;;;;;7.98;53.09;99891.78;267392;1271;24228;-79
2023/03/17 06:40:10;;;;;;;50.90;23.70;;;;;;;8.44;52.55;99905.05;267842;1268;22996;-80
2023/03/17 06:46:11;;;;;;;50.00;25.20;;;;;;;8.50;52.05;99896.84;267427;1257;24334;-80
2023/03/17 06:52:13;;;;;;;51.70;22.30;;;;;;;8.71;51.80;99895.99;267596;1258;24232;-80
2023/03/17 06:58:19;;;;;;;46.00;22.10;;;;;;;9.13;51.04;99898.46;267626;1273;23908;-80
2023/03/17 07:04:21;;;;;;;52.00;23.10;;;;;;;9.03;51.09;99898.46;267372;1267;23781;-79
2023/03/17 07:10:23;;;;;;;46.10;20.60;;;;;;;9.32;50.54;99889.83;267601;1270;23561;-80
2023/03/17 07:16:37;;;;;;;39.30;19.00;;;;;;;9.58;49.82;99889.92;267414;1273;22593;-80
2023/03/17 07:22:43;;;;;;;39.90;17.90;;;;;;;9.74;49.65;99885.45;267496;1269;22793;-77
2023/03/17 07:28:45;;;;;;;40.20;18.30;;;;;;;9.86;49.76;99878.27;267579;1270;25465;-81
2023/03/17 07:34:48;;;;;;;36.50;16.90;;;;;;;10.08;49.06;99882.41;267561;1268;22584;-80
2023/03/17 07:40:51;;;;;;;36.00;16.30;;;;;;;10.44;48.47;99876.02;267468;1259;23576;-80
2023/03/17 07:46:53;;;;;;;38.40;16.50;;;;;;;10.62;48.25;99871.52;267790;1267;22604;-80
2023/03/17 07:52:58;;;;;;;32.00;14.80;;;;;;;11.05;47.81;99867.41;267797;1266;87748;-81
2023/03/17 07:59:00;;;;;;;31.70;14.30;;;;;;;11.21;47.48;99864.19;267391;1267;22571;-81
2023/03/17 08:05:03;;;;;;;38.00;15.10;;;;;;;11.62;46.86;99859.94;268265;1257;22565;-80
2023/03/17 08:11:04;;;;;;;32.50;14.60;;;;;;;12.05;46.23;99861.62;267509;1267;22621;-80
2023/03/17 08:17:06;;;;;;;32.40;14.50;;;;;;;12.17;45.93;99856.83;267318;1266;26098;-79
2023/03/17 08:23:08;;;;;;;31.30;13.60;;;;;;;12.04;45.85;99854.50;267242;1267;25348;-78
2023/03/17 08:29:10;;;;;;;29.20;13.20;;;;;;;12.43;44.82;99849.34;267174;1267;23908;-80
2023/03/17 08:35:14;;;;;;;23.00;11.00;;;;;;;12.42;43.28;99847.59;267216;1267;22546;-80
2023/03/17 08:41:19;;;;;;;15.30;7.00;;;;;;;12.64;42.35;99848.55;267065;1266;22647;-80
2023/03/17 08:47:22;;;;;;;15.60;7.40;;;;;;;13.17;40.92;99850.09;267351;1268;22584;-80
2023/03/17 08:53:24;;;;;;;16.40;7.10;;;;;;;13.16;39.89;99853.58;267327;1252;22654;-79
2023/03/17 08:59:26;;;;;;;16.30;7.60;;;;;;;13.57;40.01;99849.65;268326;1262;25117;-79
2023/03/17 09:05:28;;;;;;;22.60;7.40;;;;;;;13.78;39.85;99845.80;267241;1268;22557;-80
2023/03/17 09:11:31;;;;;;;14.90;6.20;;;;;;;13.69;38.90;99842.56;267218;1266;25580;-81
2023/03/17 09:17:33;;;;;;;15.80;6.40;;;;;;;13.72;38.28;99838.29;267387;1266;25100;-79
2023/03/17 09:23:35;;;;;;;14.50;6.70;;;;;;;14.13;37.78;99831.44;267565;1270;22527;-79
2023/03/17 09:29:37;;;;;;;9.30;4.10;;;;;;;14.33;36.50;99822.82;267555;1270;23502;-78
2023/03/17 09:35:40;;;;;;;8.40;3.50;;;;;;;14.32;35.41;99819.41;267021;1264;22576;-80
2023/03/17 09:42:15;;;;;;;6.80;3.40;;;;;;;14.83;34.88;99812.86;267614;1268;24205;-80
2023/03/17 09:48:27;;;;;;;7.30;3.90;;;;;;;15.05;34.07;99807.81;267509;1274;22646;-81
2023/03/17 09:54:36;;;;;;;6.60;3.00;;;;;;;15.04;33.47;99800.96;267381;1268;22530;-80
2023/03/17 10:00:38;;;;;;;6.00;2.60;;;;;;;15.42;32.60;99794.16;267404;1268;22555;-81
2023/03/17 10:06:42;;;;;;;6.50;2.70;;;;;;;15.49;32.08;99781.12;267778;1268;22511;-80
2023/03/17 10:12:53;;;;;;;5.60;2.30;;;;;;;15.70;32.14;99769.85;267725;1258;22534;-84
2023/03/17 10:19:09;;;;;;;4.60;2.40;;;;;;;15.78;31.58;99760.80;267487;1271;25255;-81
2023/03/17 10:25:23;;;;;;;5.10;2.40;;;;;;;16.04;31.08;99753.12;267566;1268;25236;-82
2023/03/17 10:31:29;;;;;;;4.20;2.10;;;;;;;16.34;30.79;99744.48;267202;1270;22551;-83
2023/03/17 10:37:35;;;;;;;7.70;2.70;;;;;;;16.22;30.12;99750.38;267829;1269;25234;-83
2023/03/17 10:43:43;;;;;;;6.30;2.40;;;;;;;16.85;30.34;99743.52;267599;1269;24231;-82
2023/03/17 10:49:45;;;;;;;4.70;2.40;;;;;;;16.70;29.82;99729.13;267627;1267;25230;-83
2023/03/17 10:55:53;;;;;;;4.20;2.10;;;;;;;17.03;29.65;99723.84;267651;1267;22608;-85
2023/03/17 11:02:00;;;;;;;5.10;2.40;;;;;;;17.35;29.10;99711.30;267683;1268;22527;-86
2023/03/17 11:08:09;;;;;;;5.20;2.40;;;;;;;17.45;28.81;99707.65;267475;1274;23902;-80
2023/03/17 11:14:17;;;;;;;6.20;2.40;;;;;;;17.65;28.57;99696.00;267526;1267;22719;-81
2023/03/17 11:20:25;;;;;;;4.20;2.40;;;;;;;18.10;28.14;99698.85;267699;1266;22565;-81
2023/03/17 11:26:39;;;;;;;4.20;2.30;;;;;;;17.83;27.81;99695.48;267712;1267;22538;-81
2023/03/17 11:32:49;;;;;;;3.90;2.20;;;;;;;17.89;27.62;99693.27;268437;1268;22969;-84
2023/03/17 11:39:26;;;;;;;5.70;2.30;;;;;;;17.96;27.33;99688.95;269112;1268;22583;-80
2023/03/17 11:45:44;;;;;;;4.30;2.20;;;;;;;18.14;27.30;99682.30;266797;1274;22693;-80
2023/03/17 11:51:52;;;;;;;4.90;2.30;;;;;;;18.22;26.40;99656.39;268192;1274;22599;-79
2023/03/17 11:58:00;;;;;;;7.10;2.50;;;;;;;18.22;27.35;99637.01;266293;1270;22540;-79
2023/03/17 12:04:40;;;;;;;6.50;2.60;;;;;;;18.34;27.07;99642.10;265698;1277;24246;-80
2023/03/17 12:10:48;;;;;;;4.70;2.10;;;;;;;18.81;26.31;99624.92;264852;1283;24842;-80
2023/03/17 12:16:58;;;;;;;5.00;2.00;;;;;;;18.89;25.86;99605.64;264566;1283;23131;-80
2023/03/17 12:23:13;;;;;;;3.20;1.90;;;;;;;19.14;24.97;99608.36;265569;1279;25874;-79
2023/03/17 12:29:33;;;;;;;4.10;2.10;;;;;;;19.44;24.30;99607.89;265839;1277;23197;-79
2023/03/17 12:36:01;;;;;;;3.20;1.80;;;;;;;19.28;24.55;99603.50;265635;1277;24212;-79
2023/03/17 12:42:32;;;;;;;4.80;2.30;;;;;;;19.48;24.57;99600.29;266002;1275;22562;-79
2023/03/17 12:49:07;;;;;;;5.00;2.60;;;;;;;19.47;25.26;99585.41;267543;1269;25364;-79
2023/03/17 12:55:13;;;;;;;5.90;2.40;;;;;;;19.46;25.54;99584.59;267399;1269;22592;-79
2023/03/17 13:01:32;;;;;;;8.20;3.60;;;;;;;19.09;27.03;99576.41;267661;1269;22629;-78
2023/03/17 13:07:50;;;;;;;6.20;3.20;;;;;;;19.89;27.82;99560.77;268010;1267;22863;-78
2023/03/17 13:14:05;;;;;;;5.00;2.60;;;;;;;19.64;27.74;99555.30;269860;1268;22940;-78
2023/03/17 13:20:06;;;;;;;7.00;3.00;;;;;;;19.16;28.57;99554.67;267803;1268;22545;-77
2023/03/17 13:26:11;;;;;;;6.70;3.00;;;;;;;18.96;29.26;99544.34;267546;1270;22567;-76
2023/03/17 13:32:14;;;;;;;5.40;3.00;;;;;;;19.09;29.64;99543.95;268736;1262;22546;-78
2023/03/17 13:38:34;;;;;;;5.00;2.90;;;;;;;19.44;29.40;99542.55;267906;1271;25459;-78
2023/03/17 13:45:08;;;;;;;6.10;2.80;;;;;;;19.20;29.46;99542.45;268461;1269;22530;-77
2023/03/17 13:51:13;;;;;;;6.40;2.90;;;;;;;19.00;30.16;99541.29;267918;1269;23396;-81
2023/03/17 13:57:24;;;;;;;;;;;;;;;18.76;29.75;99538.84;267345;1271;22508;-82
2023/03/17 14:03:33;;;;;;;6.40;2.80;;;;;;;18.65;30.10;99529.42;268463;1273;22596;-81
2023/03/17 14:09:40;;;;;;;6.20;2.70;;;;;;;18.46;30.00;99522.25;267589;1272;22601;-79
2023/03/17 14:15:50;;;;;;;4.40;2.60;;;;;;;18.37;29.96;99516.08;267143;1274;22530;-79
2023/03/17 14:21:54;;;;;;;8.90;2.60;;;;;;;19.13;29.81;99501.20;267147;1272;22602;-82
2023/03/17 14:27:56;;;;;;;7.10;2.70;;;;;;;18.90;29.80;99495.09;268426;1274;22561;-81
2023/03/17 14:33:59;;;;;;;6.80;3.60;;;;;;;18.91;29.85;99488.77;268397;1274;22561;-82
2023/03/17 14:40:16;;;;;;;5.50;2.90;;;;;;;19.01;29.49;99489.20;268751;1269;22559;-81
2023/03/17 14:46:33;;;;;;;5.00;2.40;;;;;;;18.75;29.40;99482.79;268302;1274;22673;-82
2023/03/17 14:52:36;;;;;;;5.20;2.50;;;;;;;18.77;29.02;99487.64;267641;1271;22531;-82
2023/03/17 14:58:46;;;;;;;5.70;2.50;;;;;;;18.98;28.87;99477.86;267365;1270;23380;-82
2023/03/17 15:04:56;;;;;;;4.80;2.30;;;;;;;19.12;28.34;99472.02;268686;1268;23035;-80
2023/03/17 15:11:02;;;;;;;4.80;2.40;;;;;;;18.96;27.90;99460.01;267697;1274;22567;-79
2023/03/17 15:17:15;;;;;;;6.10;2.50;;;;;;;18.36;28.18;99456.88;267675;1274;23276;-79
2023/03/17 15:23:23;;;;;;;5.00;2.20;;;;;;;18.01;28.25;99454.11;267425;1269;27893;-81
2023/03/17 15:29:25;;;;;;;5.20;2.40;;;;;;;17.97;28.19;99450.67;267701;1271;25952;-81
2023/03/17 15:35:31;;;;;;;5.40;2.60;;;;;;;17.76;28.53;99437.52;267963;1269;25895;-81
2023/03/17 15:41:33;;;;;;;7.20;2.30;;;;;;;17.84;28.35;99428.34;269120;1269;22683;-82
2023/03/17 15:47:38;;;;;;;7.10;2.50;;;;;;;17.57;28.43;99432.20;269317;1272;25448;-81
2023/03/17 15:53:40;;;;;;;5.20;2.30;;;;;;;17.68;28.57;99432.23;269258;1258;22486;-81
2023/03/17 15:59:43;;;;;;;3.90;2.30;;;;;;;17.57;28.64;99423.79;268807;1272;22527;-83
2023/03/17 16:05:49;;;;;;;6.90;2.40;;;;;;;17.40;28.65;99421.61;267799;1268;23933;-91
2023/03/17 16:11:56;;;;;;;7.20;2.50;;;;;;;17.66;28.43;99421.35;269083;1261;24229;-84
2023/03/17 16:18:00;;;;;;;5.90;2.50;;;;;;;17.24;28.72;99415.85;269209;1265;24372;-85
2023/03/17 16:24:03;;;;;;;5.70;3.00;;;;;;;17.27;29.10;99410.31;268532;1268;25309;-80
2023/03/17 16:30:15;;;;;;;11.60;3.50;;;;;;;17.08;29.45;99409.48;267127;1256;22527;-82
2023/03/17 16:36:20;;;;;;;6.20;3.20;;;;;;;16.73;30.23;99411.88;267297;1258;22554;-81
2023/03/17 16:42:22;;;;;;;6.90;3.20;;;;;;;16.67;31.07;99421.62;267511;1267;22533;-81
2023/03/17 16:48:28;;;;;;;9.60;3.70;;;;;;;16.81;31.56;99426.11;267798;1267;23552;-80
2023/03/17 16:54:35;;;;;;;7.10;3.60;;;;;;;16.50;32.24;99420.77;267451;1269;25400;-82
2023/03/17 17:00:38;;;;;;;9.90;3.80;;;;;;;16.44;32.55;99420.61;267691;1268;22555;-79
2023/03/17 17:06:40;;;;;;;10.50;4.00;;;;;;;16.45;32.78;99417.96;267795;1256;25236;-81
2023/03/17 17:12:45;;;;;;;7.90;3.70;;;;;;;16.12;33.25;99420.91;267683;1267;24231;-80
2023/03/17 17:18:47;;;;;;;9.00;4.00;;;;;;;16.11;33.50;99421.13;267493;1269;23301;-80
2023/03/17 17:24:49;;;;;;;9.70;4.30;;;;;;;16.10;33.60;99418.77;267316;1272;22773;-81
2023/03/17 17:30:52;;;;;;;12.00;4.30;;;;;;;15.91;33.93;99432.71;267218;1269;25488;-80
2023/03/17 17:36:54;;;;;;;11.50;4.80;;;;;;;15.47;34.49;99437.28;267380;1268;22524;-80
2023/03/17 17:42:57;;;;;;;14.90;6.40;;;;;;;15.35;34.60;99442.39;267320;1274;22565;-80
2023/03/17 17:48:59;;;;;;;12.80;5.50;;;;;;;15.42;34.65;99441.34;267411;1268;25285;-78
2023/03/17 17:55:04;;;;;;;15.50;6.80;;;;;;;15.16;34.82;99444.88;267371;1267;24240;-80
2023/03/17 18:01:11;;;;;;;15.10;6.80;;;;;;;14.96;35.03;99446.46;267486;1266;25230;-79
2023/03/17 18:07:13;;;;;;;15.10;6.30;;;;;;;14.86;35.12;99444.38;266995;1266;24203;-80
2023/03/17 18:13:17;;;;;;;16.00;6.60;;;;;;;14.65;35.40;99444.93;267236;1270;25340;-82
2023/03/17 18:19:24;;;;;;;16.20;7.60;;;;;;;14.45;35.66;99447.53;267412;1269;22538;-81
2023/03/17 18:25:27;;;;;;;18.50;7.50;;;;;;;14.30;35.85;99450.27;267325;1274;22527;-80
2023/03/17 18:38:05;;;;;;;14.20;5.90;;;;;;;14.43;35.55;99451.67;267538;1258;24231;-81
2023/03/17 18:44:08;;;;;;;13.70;6.00;;;;;;;14.84;35.12;99449.75;267635;1270;24255;-83
2023/03/17 18:50:12;;;;;;;16.30;6.20;;;;;;;14.36;35.61;99453.07;267332;1263;24206;-82
2023/03/17 18:56:14;;;;;;;16.10;6.60;;;;;;;14.29;35.98;99449.78;267363;1273;22534;-81
2023/03/17 19:02:16;;;;;;;16.80;7.50;;;;;;;14.24;36.18;99442.34;267293;1275;22530;-83
2023/03/17 19:08:19;;;;;;;15.60;7.00;;;;;;;13.76;36.94;99443.04;268125;1272;22581;-86
2023/03/17 19:14:23;;;;;;;17.20;8.30;;;;;;;13.47;37.53;99437.57;268806;1274;22718;-86
2023/03/17 19:20:25;;;;;;;18.10;8.10;;;;;;;13.47;37.71;99436.71;268948;1274;23389;-85
2023/03/17 19:26:30;;;;;;;19.10;8.80;;;;;;;13.27;38.09;99430.95;268319;1266;24195;-82
2023/03/17 19:32:32;;;;;;;19.70;9.10;;;;;;;13.13;38.48;99428.89;267922;1273;22762;-83
2023/03/17 19:38:39;;;;;;;21.00;9.60;;;;;;;13.10;38.70;99428.34;267218;1264;23498;-81
2023/03/17 19:44:41;;;;;;;18.00;8.20;;;;;;;13.08;38.72;99424.80;267679;1274;22639;-83
2023/03/17 19:50:46;;;;;;;23.10;9.40;;;;;;;13.09;38.88;99422.70;267337;1256;157847;-84
2023/03/17 19:56:48;;;;;;;21.00;9.30;;;;;;;12.91;39.26;99425.83;268932;1274;25291;-88
2023/03/17 20:02:53;;;;;;;21.70;9.40;;;;;;;12.95;39.33;99425.01;269056;1273;22529;-90
2023/03/17 20:08:54;;;;;;;20.30;9.30;;;;;;;12.99;39.48;99420.13;267751;1273;22572;-83
2023/03/17 20:14:56;;;;;;;18.50;8.30;;;;;;;12.96;39.56;99421.80;267376;1269;24253;-83
2023/03/17 20:20:59;;;;;;;18.80;8.80;;;;;;;12.82;39.71;99421.05;267370;1273;22567;-84
2023/03/17 20:27:02;;;;;;;24.70;10.20;;;;;;;12.43;40.27;99417.23;267051;1271;23281;-84
2023/03/17 20:33:05;;;;;;;22.80;10.30;;;;;;;12.17;40.72;99411.76;267492;1267;22534;-84
2023/03/17 20:39:12;;;;;;;18.90;8.60;;;;;;;11.90;40.93;99409.55;267155;1273;22528;-81
2023/03/17 20:45:18;;;;;;;20.40;8.90;;;;;;;11.72;41.21;99409.10;267190;1273;23399;-84
2023/03/17 20:51:19;;;;;;;30.80;10.10;;;;;;;11.92;41.04;99410.20;267197;1274;25331;-80
2023/03/17 20:57:21;;;;;;;21.50;9.00;;;;;;;11.78;41.19;99413.58;267293;1273;23187;-81
2023/03/17 21:03:27;;;;;;;19.20;8.30;;;;;;;11.70;41.17;99414.44;267498;1271;22535;-81
2023/03/17 21:09:29;;;;;;;18.90;8.40;;;;;;;11.55;41.26;99410.88;267557;1259;25237;-80
2023/03/17 21:15:30;;;;;;;18.60;8.40;;;;;;;11.49;41.40;99407.05;267735;1272;22540;-80
2023/03/17 21:21:32;;;;;;;21.40;8.60;;;;;;;11.59;41.32;99403.38;267500;1271;22766;-80
2023/03/17 21:27:39;;;;;;;19.60;8.00;;;;;;;11.62;41.07;99400.45;267606;1265;22523;-80
2023/03/17 21:33:41;;;;;;;17.20;7.50;;;;;;;11.49;41.49;99402.33;267623;1268;22540;-81
2023/03/17 21:39:43;;;;;;;17.60;7.00;;;;;;;11.46;41.51;99396.26;267736;1274;22551;-80
2023/03/17 21:45:45;;;;;;;21.30;8.30;;;;;;;11.21;41.92;99401.86;267594;1271;23223;-79
2023/03/17 21:51:46;;;;;;;15.50;6.70;;;;;;;11.13;42.29;99402.47;267498;1274;22600;-79
2023/03/17 21:57:48;;;;;;;17.70;7.80;;;;;;;11.15;42.31;99404.02;267733;1268;25239;-80
2023/03/17 22:03:50;;;;;;;17.70;7.80;;;;;;;11.34;42.22;99404.45;267573;1274;22568;-79
2023/03/17 22:09:53;;;;;;;18.60;8.10;;;;;;;11.13;42.47;99407.20;267814;1270;22751;-79
2023/03/17 22:15:58;;;;;;;20.70;7.90;;;;;;;11.15;42.62;99409.56;267523;1273;22543;-80
2023/03/17 22:22:00;;;;;;;16.60;8.10;;;;;;;10.98;42.90;99415.18;267642;1266;25674;-80
2023/03/17 22:28:02;;;;;;;18.30;8.00;;;;;;;10.83;43.03;99413.33;267290;1252;23308;-80
2023/03/17 22:34:05;;;;;;;17.30;7.60;;;;;;;10.76;43.17;99414.11;267394;1267;23125;-81
2023/03/17 22:40:08;;;;;;;17.30;7.00;;;;;;;10.79;43.24;99413.81;267859;1266;23333;-80
2023/03/17 22:46:10;;;;;;;16.80;8.20;;;;;;;10.95;42.87;99405.08;267432;1272;25237;-80
2023/03/17 22:52:12;;;;;;;18.30;8.40;;;;;;;10.56;43.48;99408.22;267538;1267;22546;-80
2023/03/17 22:58:14;;;;;;;19.70;8.60;;;;;;;10.65;43.36;99404.20;267652;1267;22579;-81
2023/03/17 23:04:17;;;;;;;16.90;8.10;;;;;;;10.72;43.30;99401.15;267719;1267;22715;-80
2023/03/17 23:10:23;;;;;;;16.30;8.10;;;;;;;10.56;43.61;99403.70;267745;1274;24217;-81
2023/03/17 23:16:26;;;;;;;18.20;7.90;;;;;;;10.41;43.86;99407.92;267526;1274;22609;-78
2023/03/17 23:22:28;;;;;;;18.90;8.20;;;;;;;10.53;43.86;99400.16;267515;1270;22800;-78
2023/03/17 23:28:30;;;;;;;16.70;8.20;;;;;;;10.45;43.94;99407.12;267388;1273;23389;-79
2023/03/17 23:34:32;;;;;;;18.70;7.60;;;;;;;10.50;43.86;99404.02;267485;1251;22542;-79
2023/03/17 23:40:33;;;;;;;19.20;8.50;;;;;;;10.38;44.04;99408.52;267461;1267;26931;-76
2023/03/17 23:46:36;;;;;;;19.40;8.40;;;;;;;10.36;44.04;99404.17;267589;1267;22531;-79
2023/03/17 23:52:37;;;;;;;17.00;8.40;;;;;;;10.09;44.43;99392.98;267894;1270;22523;-79
2023/03/17 23:58:41;;;;;;;20.20;9.10;;;;;;;10.38;44.02;99383.41;267523;1274;24227;-78
